Terminal Aerodrome Forecast
Issued by NWS Des Moines, IA

Home | Current Version | Previous Version | Text Only | Print | Product List | Glossary On
Versions: 1 2 3 4 5 6 7 8 9 10 11 12 13 14 15 16 17 18 19 20 21 22 23 24 25 26 27 28 29 30 31 32 33 34
728
FTUS43 KDMX 132338
TAFDSM
TAF
KDSM 132338Z 1400/1424 13012KT P6SM -SN OVC040
      TEMPO 1402/1405 2SM -SN BR OVC025
     FM140800 14014G20KT 1SM -SN OVC010
     FM141400 13012KT 4SM -SN OVC015
     FM141800 13009KT 5SM BR OVC025=

USA.gov is the U.S. government's official web portal to all federal, state and local government web resources and services.